createdAt,value
2023-06-30T00:00:55.190Z,69.63
2023-06-30T00:04:03.577Z,68.17
2023-06-30T00:07:11.496Z,65.97
2023-06-30T00:10:16.993Z,66.47
2023-06-30T00:13:22.427Z,66.93
2023-06-30T00:16:27.808Z,68.54
2023-06-30T00:19:33.443Z,68.58
2023-06-30T00:22:39.069Z,66.46
2023-06-30T00:25:44.599Z,66.98
2023-06-30T00:28:50.170Z,69.46
2023-06-30T00:31:55.622Z,69.66
2023-06-30T00:35:02.068Z,69.90
2023-06-30T00:38:07.603Z,70.61
2023-06-30T00:41:13.381Z,73.56
2023-06-30T00:44:18.592Z,72.74
2023-06-30T00:47:24.362Z,73.66
2023-06-30T00:50:31.640Z,71.38
2023-06-30T00:53:38.189Z,73.82
2023-06-30T00:56:43.962Z,72.28
2023-06-30T00:59:49.616Z,71.10
2023-06-30T01:03:02.874Z,70.71
2023-06-30T01:06:19.019Z,70.28
2023-06-30T01:09:28.961Z,67.96
2023-06-30T01:12:36.348Z,69.21
2023-06-30T01:15:44.649Z,71.82
2023-06-30T01:18:54.835Z,71.24
2023-06-30T01:22:09.258Z,70.53
2023-06-30T01:25:22.734Z,71.19
2023-06-30T01:28:35.078Z,69.53
2023-06-30T01:31:44.835Z,67.63
2023-06-30T01:34:50.373Z,66.95
2023-06-30T01:37:57.010Z,67.76
2023-06-30T01:41:08.322Z,69.09
2023-06-30T01:44:14.309Z,68.32
2023-06-30T01:47:20.516Z,67.52
2023-06-30T01:50:31.345Z,66.16
2023-06-30T01:53:36.760Z,64.79
2023-06-30T01:56:52.775Z,65.90
2023-06-30T01:59:58.564Z,67.10
2023-06-30T02:03:04.874Z,68.33
2023-06-30T02:06:10.453Z,68.75
2023-06-30T02:09:16.382Z,71.54
2023-06-30T02:12:23.389Z,73.61
2023-06-30T02:15:29.066Z,71.37
2023-06-30T02:21:39.592Z,71.10
2023-06-30T02:24:45.114Z,70.84
2023-06-30T02:27:52.288Z,70.75
2023-06-30T02:30:58.392Z,70.28
2023-06-30T02:34:04.843Z,70.47
2023-06-30T02:37:11.065Z,70.09
2023-06-30T02:40:16.235Z,69.90
2023-06-30T02:43:21.453Z,72.74
2023-06-30T02:46:26.834Z,72.23
2023-06-30T02:49:34.147Z,74.54
2023-06-30T02:52:40.429Z,75.92
2023-06-30T02:55:46.894Z,78.12
2023-06-30T02:58:54.120Z,78.25
2023-06-30T03:02:01.452Z,79.30
2023-06-30T03:05:09.654Z,87.93
2023-06-30T03:08:15.803Z,97.71
2023-06-30T03:11:25.910Z,100.00
2023-06-30T03:14:31.543Z,100.00
2023-06-30T03:17:38.302Z,100.00
2023-06-30T03:20:44.068Z,100.00
2023-06-30T03:23:49.706Z,100.00
2023-06-30T03:26:54.862Z,100.00
2023-06-30T03:30:05.630Z,100.00
2023-06-30T03:33:15.124Z,98.25
2023-06-30T03:36:21.038Z,98.81
2023-06-30T03:39:26.547Z,98.24
2023-06-30T03:42:33.464Z,93.69
2023-06-30T03:45:40.590Z,95.02
2023-06-30T03:48:46.245Z,92.66
2023-06-30T03:51:51.863Z,96.80
2023-06-30T03:54:57.483Z,96.80
2023-06-30T03:58:04.007Z,97.64
2023-06-30T04:01:09.465Z,97.87
2023-06-30T04:04:15.075Z,96.02
2023-06-30T04:07:21.098Z,92.17
2023-06-30T04:10:26.521Z,94.18
2023-06-30T04:13:31.874Z,94.58
2023-06-30T04:16:37.768Z,93.00
2023-06-30T04:19:43.287Z,91.18
2023-06-30T04:22:49.773Z,90.88
2023-06-30T04:25:55.317Z,91.52
2023-06-30T04:29:01.163Z,92.01
2023-06-30T04:32:06.991Z,90.50
2023-06-30T04:35:12.874Z,93.88
2023-06-30T04:38:22.735Z,92.76
2023-06-30T04:41:29.432Z,93.93
2023-06-30T04:44:35.083Z,94.96
2023-06-30T04:47:41.086Z,94.74
2023-06-30T04:50:46.708Z,92.94
2023-06-30T04:53:52.900Z,94.96
2023-06-30T04:56:58.728Z,94.68
2023-06-30T05:00:04.909Z,94.93
2023-06-30T05:03:10.137Z,97.85
2023-06-30T05:06:15.713Z,99.36
2023-06-30T05:09:23.905Z,93.59
2023-06-30T05:12:29.224Z,92.92
2023-06-30T05:15:34.521Z,89.87
2023-06-30T05:18:39.915Z,90.34
2023-06-30T05:21:45.439Z,88.32
2023-06-30T05:24:50.885Z,87.64
2023-06-30T05:27:56.070Z,83.77
2023-06-30T05:31:01.912Z,83.10
2023-06-30T05:34:07.606Z,84.01
2023-06-30T05:37:13.360Z,83.66
2023-06-30T05:40:19.262Z,80.24
2023-06-30T05:43:24.869Z,77.85
2023-06-30T05:46:30.605Z,76.15
2023-06-30T05:49:35.682Z,74.98
2023-06-30T05:52:41.305Z,74.58
2023-06-30T05:55:46.960Z,74.39
2023-06-30T05:58:52.722Z,71.91
2023-06-30T06:01:58.509Z,69.81
2023-06-30T06:05:04.976Z,68.00
2023-06-30T06:08:10.509Z,64.92
2023-06-30T06:11:16.780Z,63.40
2023-06-30T06:14:22.690Z,63.05
2023-06-30T06:17:28.449Z,61.93
2023-06-30T06:20:35.915Z,61.07
2023-06-30T06:23:41.604Z,59.15
2023-06-30T06:26:47.251Z,58.77
2023-06-30T06:29:52.744Z,57.51
2023-06-30T06:32:58.423Z,55.62
2023-06-30T06:36:04.566Z,55.04
2023-06-30T06:39:10.546Z,53.50
2023-06-30T06:42:17.078Z,54.16
2023-06-30T06:45:27.765Z,52.33
2023-06-30T06:48:33.236Z,53.49
2023-06-30T06:51:38.791Z,52.41
2023-06-30T06:54:44.448Z,52.72
2023-06-30T06:57:50.126Z,49.67
2023-06-30T07:00:56.269Z,50.72
2023-06-30T07:04:02.399Z,51.69
2023-06-30T07:07:08.028Z,50.94
2023-06-30T07:10:13.659Z,50.50
2023-06-30T07:13:21.628Z,50.32
2023-06-30T07:16:27.793Z,51.20
2023-06-30T07:19:33.682Z,50.06
2023-06-30T07:22:39.194Z,50.76
2023-06-30T07:25:46.012Z,49.35
2023-06-30T07:28:52.484Z,49.09
2023-06-30T07:31:58.472Z,48.18
2023-06-30T07:35:04.217Z,47.20
2023-06-30T07:38:10.171Z,46.17
2023-06-30T07:41:15.848Z,46.05
2023-06-30T07:44:22.168Z,45.73
2023-06-30T07:47:28.017Z,44.69
2023-06-30T07:50:33.702Z,45.38
2023-06-30T07:53:40.474Z,45.05
2023-06-30T07:56:47.654Z,45.17
2023-06-30T07:59:53.542Z,43.38
2023-06-30T08:02:59.900Z,43.79
2023-06-30T08:06:06.419Z,43.70
2023-06-30T08:09:12.339Z,41.42
2023-06-30T08:12:17.753Z,42.31
2023-06-30T08:15:23.322Z,41.66
2023-06-30T08:18:32.123Z,43.25
2023-06-30T08:21:41.175Z,43.27
2023-06-30T08:24:47.259Z,43.54
2023-06-30T08:27:53.348Z,42.72
2023-06-30T08:30:58.727Z,41.41
2023-06-30T08:34:04.415Z,41.96
2023-06-30T08:37:09.915Z,42.52
2023-06-30T08:40:22.970Z,42.04
2023-06-30T08:43:30.607Z,42.79
2023-06-30T08:46:36.260Z,42.61
2023-06-30T08:49:43.329Z,42.14
2023-06-30T08:52:49.299Z,41.02
2023-06-30T08:55:58.310Z,42.01
2023-06-30T08:59:03.695Z,41.63
2023-06-30T09:02:09.890Z,42.01
2023-06-30T09:05:16.249Z,42.09
2023-06-30T09:08:27.678Z,42.67
2023-06-30T09:11:35.400Z,43.57
2023-06-30T09:14:42.674Z,43.18
2023-06-30T09:17:48.376Z,42.04
2023-06-30T09:20:54.733Z,41.78
2023-06-30T09:24:00.885Z,40.46
2023-06-30T09:27:07.818Z,41.67
2023-06-30T09:30:13.954Z,41.67
2023-06-30T09:33:21.980Z,41.80
2023-06-30T09:36:27.811Z,42.49
2023-06-30T09:39:33.549Z,41.96
2023-06-30T09:42:39.408Z,41.96
2023-06-30T09:46:07.015Z,42.17
2023-06-30T09:49:25.037Z,42.71
2023-06-30T09:52:32.645Z,41.84
2023-06-30T09:55:51.484Z,42.31
2023-06-30T09:59:00.838Z,42.08
2023-06-30T10:02:06.453Z,43.12
2023-06-30T10:05:12.497Z,43.21
2023-06-30T10:08:18.301Z,43.87
2023-06-30T10:11:25.104Z,43.59
2023-06-30T10:14:32.993Z,44.41
2023-06-30T10:17:44.878Z,44.59
2023-06-30T10:20:50.939Z,45.65
2023-06-30T10:23:57.915Z,45.95
2023-06-30T10:27:03.686Z,46.45
2023-06-30T10:30:09.755Z,46.56
2023-06-30T10:33:15.418Z,45.92
2023-06-30T10:36:21.608Z,46.31
2023-06-30T10:39:28.378Z,50.33
2023-06-30T10:42:42.880Z,52.46
2023-06-30T10:46:12.528Z,55.69
2023-06-30T10:49:28.749Z,56.53
2023-06-30T10:52:34.063Z,58.13
2023-06-30T10:55:45.055Z,61.81
2023-06-30T10:58:51.670Z,58.35
2023-06-30T11:02:20.246Z,56.88
2023-06-30T11:05:28.579Z,56.10
2023-06-30T11:08:34.218Z,57.22
2023-06-30T11:11:52.737Z,57.72
2023-06-30T11:15:00.191Z,60.58
2023-06-30T11:18:22.708Z,61.69
2023-06-30T11:21:28.325Z,61.95
2023-06-30T11:24:35.159Z,62.05
2023-06-30T11:27:41.837Z,62.03
2023-06-30T11:30:47.652Z,62.98
2023-06-30T11:33:55.215Z,63.85
2023-06-30T11:37:06.584Z,64.19
2023-06-30T11:40:12.543Z,63.87
2023-06-30T11:43:19.030Z,66.38
2023-06-30T11:46:25.175Z,68.14
2023-06-30T11:49:36.648Z,67.38
2023-06-30T11:52:42.099Z,66.58
2023-06-30T11:55:47.858Z,66.40
2023-06-30T11:58:54.955Z,64.72
2023-06-30T12:02:04.194Z,64.66
2023-06-30T12:05:15.822Z,62.23
2023-06-30T12:08:22.147Z,63.44
2023-06-30T12:11:31.665Z,63.75
2023-06-30T12:14:42.250Z,61.20
2023-06-30T12:17:48.171Z,62.99
2023-06-30T12:20:53.657Z,63.08
2023-06-30T12:23:59.252Z,62.75
2023-06-30T12:27:07.441Z,64.74
2023-06-30T12:30:18.020Z,62.51
2023-06-30T12:33:23.656Z,60.90
2023-06-30T12:36:32.213Z,61.10
2023-06-30T12:39:37.677Z,59.84
2023-06-30T12:42:48.459Z,60.77
2023-06-30T12:45:53.908Z,62.30
2023-06-30T12:48:59.724Z,73.40
2023-06-30T12:52:05.952Z,91.87
2023-06-30T12:55:11.763Z,94.96
2023-06-30T12:58:17.706Z,100.00
2023-06-30T13:01:23.452Z,100.00
2023-06-30T13:04:29.390Z,100.00
2023-06-30T13:07:36.277Z,100.00
2023-06-30T13:10:42.247Z,100.00
2023-06-30T13:13:47.724Z,100.00
2023-06-30T13:16:53.205Z,100.00
2023-06-30T13:19:59.354Z,100.00
2023-06-30T13:23:14.529Z,100.00
2023-06-30T13:26:25.702Z,100.00
2023-06-30T13:29:30.805Z,100.00
2023-06-30T13:32:36.128Z,100.00
2023-06-30T13:35:41.714Z,100.00
2023-06-30T13:38:48.329Z,100.00
2023-06-30T13:41:54.030Z,100.00
2023-06-30T13:44:59.671Z,100.00
2023-06-30T13:48:06.265Z,100.00
2023-06-30T13:51:11.902Z,100.00
2023-06-30T13:54:18.718Z,100.00
2023-06-30T13:57:24.233Z,100.00
2023-06-30T14:00:30.871Z,100.00
2023-06-30T14:03:41.722Z,100.00
2023-06-30T14:06:47.247Z,100.00
2023-06-30T14:09:52.903Z,100.00
2023-06-30T14:12:59.380Z,100.00
2023-06-30T14:16:05.498Z,100.00
2023-06-30T14:19:10.961Z,100.00
2023-06-30T14:22:16.817Z,100.00
2023-06-30T14:25:24.762Z,100.00
2023-06-30T14:28:30.455Z,100.00
2023-06-30T14:31:36.008Z,100.00
2023-06-30T14:34:42.572Z,100.00
2023-06-30T14:37:52.570Z,100.00
2023-06-30T14:40:58.431Z,100.00
2023-06-30T14:44:04.366Z,100.00
2023-06-30T14:47:10.190Z,100.00
2023-06-30T14:50:16.027Z,100.00
2023-06-30T14:53:22.660Z,100.00
2023-06-30T14:56:27.940Z,100.00
2023-06-30T14:59:33.421Z,100.00
2023-06-30T15:02:38.935Z,100.00
2023-06-30T15:05:45.150Z,100.00
2023-06-30T15:08:50.789Z,100.00
2023-06-30T15:11:56.817Z,100.00
2023-06-30T15:15:02.576Z,100.00
2023-06-30T15:18:08.369Z,100.00
2023-06-30T15:21:14.153Z,100.00
2023-06-30T15:24:19.897Z,100.00
2023-06-30T15:27:26.102Z,100.00
2023-06-30T15:30:31.616Z,100.00
2023-06-30T15:33:36.982Z,100.00
2023-06-30T15:36:42.596Z,100.00
2023-06-30T15:39:48.834Z,100.00
2023-06-30T15:42:54.687Z,100.00
2023-06-30T15:46:00.725Z,100.00
2023-06-30T15:49:06.502Z,100.00
2023-06-30T15:52:12.342Z,100.00
2023-06-30T15:55:18.746Z,100.00
2023-06-30T15:58:24.935Z,100.00
2023-06-30T16:01:30.358Z,100.00
2023-06-30T16:04:36.883Z,100.00
2023-06-30T16:07:42.584Z,100.00
2023-06-30T16:10:48.327Z,100.00
2023-06-30T16:13:53.887Z,100.00
2023-06-30T16:16:59.504Z,100.00
2023-06-30T16:20:07.424Z,100.00
2023-06-30T16:23:13.119Z,100.00
2023-06-30T16:26:21.130Z,100.00
2023-06-30T16:29:33.421Z,100.00
2023-06-30T16:32:39.100Z,100.00
2023-06-30T16:35:44.980Z,100.00
2023-06-30T16:38:50.996Z,100.00
2023-06-30T16:41:57.292Z,100.00
2023-06-30T16:45:02.587Z,100.00
2023-06-30T16:48:08.377Z,100.00
2023-06-30T16:51:14.585Z,100.00
2023-06-30T16:54:20.554Z,100.00
2023-06-30T16:57:26.070Z,100.00
2023-06-30T17:00:31.784Z,100.00
2023-06-30T17:03:37.419Z,100.00
2023-06-30T17:06:43.070Z,100.00
2023-06-30T17:09:48.841Z,100.00
2023-06-30T17:12:54.196Z,100.00
2023-06-30T17:15:59.769Z,100.00
2023-06-30T17:19:05.286Z,100.00
2023-06-30T17:22:10.914Z,100.00
2023-06-30T17:25:16.459Z,100.00
2023-06-30T17:28:22.097Z,100.00
2023-06-30T17:31:28.046Z,100.00
2023-06-30T17:34:33.571Z,100.00
2023-06-30T17:37:39.386Z,100.00
2023-06-30T17:40:45.381Z,100.00
2023-06-30T17:43:51.147Z,100.00
2023-06-30T17:46:57.485Z,100.00
2023-06-30T17:50:02.750Z,100.00
2023-06-30T17:53:08.358Z,100.00
2023-06-30T17:56:14.047Z,100.00
2023-06-30T17:59:19.855Z,100.00
2023-06-30T18:02:25.611Z,100.00
2023-06-30T18:05:31.279Z,100.00
2023-06-30T18:08:37.723Z,100.00
2023-06-30T18:11:43.497Z,100.00
2023-06-30T18:14:49.020Z,100.00
2023-06-30T18:17:55.375Z,100.00
2023-06-30T18:21:00.888Z,100.00
2023-06-30T18:24:07.615Z,100.00
2023-06-30T18:27:13.165Z,100.00
2023-06-30T18:30:18.931Z,100.00
2023-06-30T18:33:25.105Z,100.00
2023-06-30T18:36:30.712Z,100.00
2023-06-30T18:39:36.497Z,100.00
2023-06-30T18:42:42.482Z,100.00
2023-06-30T18:45:48.107Z,100.00
2023-06-30T18:48:54.307Z,100.00
2023-06-30T18:51:59.958Z,100.00
2023-06-30T18:55:06.177Z,100.00
2023-06-30T18:58:11.525Z,100.00
2023-06-30T19:01:17.303Z,100.00
2023-06-30T19:04:23.166Z,100.00
2023-06-30T19:07:29.094Z,100.00
2023-06-30T19:10:34.794Z,100.00
2023-06-30T19:13:40.242Z,100.00
2023-06-30T19:16:45.931Z,100.00
2023-06-30T19:19:51.717Z,100.00
2023-06-30T19:22:57.445Z,100.00
2023-06-30T19:26:03.866Z,100.00
2023-06-30T19:29:09.253Z,100.00
2023-06-30T19:32:15.183Z,100.00
2023-06-30T19:35:20.864Z,100.00
2023-06-30T19:38:28.792Z,100.00
2023-06-30T19:41:34.860Z,100.00
2023-06-30T19:44:42.214Z,100.00
2023-06-30T19:47:47.716Z,100.00
2023-06-30T19:50:53.234Z,100.00
2023-06-30T19:53:58.926Z,100.00
2023-06-30T19:57:04.692Z,100.00
2023-06-30T20:00:11.566Z,100.00
2023-06-30T20:03:20.354Z,100.00
2023-06-30T20:06:26.520Z,100.00
2023-06-30T20:09:31.927Z,100.00
2023-06-30T20:12:37.710Z,100.00
2023-06-30T20:15:43.053Z,100.00
2023-06-30T20:18:48.346Z,100.00
2023-06-30T20:21:54.979Z,100.00
2023-06-30T20:25:00.291Z,100.00
2023-06-30T20:28:05.399Z,100.00
2023-06-30T20:31:10.799Z,100.00
2023-06-30T20:34:16.295Z,100.00
2023-06-30T20:37:21.390Z,100.00
2023-06-30T20:40:26.839Z,100.00
2023-06-30T20:43:32.148Z,100.00
2023-06-30T20:46:37.363Z,100.00
2023-06-30T20:49:42.380Z,100.00
2023-06-30T20:52:47.362Z,100.00
2023-06-30T20:55:52.853Z,100.00
2023-06-30T20:58:57.908Z,100.00
2023-06-30T21:02:03.540Z,100.00
2023-06-30T21:05:09.334Z,100.00
2023-06-30T21:08:14.382Z,100.00
2023-06-30T21:11:19.668Z,100.00
2023-06-30T21:14:25.283Z,100.00
2023-06-30T21:17:30.867Z,100.00
2023-06-30T21:20:36.325Z,100.00
2023-06-30T21:23:41.578Z,100.00
2023-06-30T21:26:47.462Z,100.00
2023-06-30T21:29:53.012Z,100.00
2023-06-30T21:32:58.416Z,100.00
2023-06-30T21:36:04.522Z,100.00
2023-06-30T21:39:10.145Z,100.00
2023-06-30T21:42:16.224Z,100.00
2023-06-30T21:45:22.190Z,100.00
2023-06-30T21:48:27.892Z,100.00
2023-06-30T21:51:33.015Z,100.00
2023-06-30T21:54:47.871Z,100.00
2023-06-30T21:57:54.514Z,100.00
2023-06-30T22:00:59.964Z,100.00
2023-06-30T22:04:05.988Z,100.00
2023-06-30T22:07:12.120Z,100.00
2023-06-30T22:10:19.266Z,100.00
2023-06-30T22:13:24.661Z,100.00
2023-06-30T22:16:30.177Z,100.00
2023-06-30T22:19:37.829Z,100.00
2023-06-30T22:22:44.146Z,100.00
2023-06-30T22:25:49.508Z,100.00
2023-06-30T22:28:54.861Z,100.00
2023-06-30T22:32:00.556Z,100.00
2023-06-30T22:35:06.571Z,100.00
2023-06-30T22:38:12.232Z,100.00
2023-06-30T22:41:18.134Z,100.00
2023-06-30T22:44:23.857Z,100.00
2023-06-30T22:47:29.418Z,100.00
2023-06-30T22:50:34.593Z,100.00
2023-06-30T22:53:39.876Z,100.00
2023-06-30T22:56:45.076Z,100.00
2023-06-30T22:59:52.638Z,100.00
2023-06-30T23:03:00.972Z,100.00
2023-06-30T23:06:06.927Z,100.00
2023-06-30T23:09:12.816Z,100.00
2023-06-30T23:12:18.334Z,100.00
2023-06-30T23:15:23.836Z,100.00
2023-06-30T23:18:38.984Z,100.00
2023-06-30T23:21:45.623Z,100.00
2023-06-30T23:24:51.585Z,100.00
2023-06-30T23:27:57.210Z,100.00
2023-06-30T23:31:03.005Z,100.00
2023-06-30T23:34:08.690Z,100.00
2023-06-30T23:37:16.763Z,100.00
2023-06-30T23:40:23.373Z,100.00
2023-06-30T23:43:29.150Z,100.00
2023-06-30T23:46:34.553Z,100.00
2023-06-30T23:49:39.786Z,100.00
2023-06-30T23:52:45.126Z,100.00
2023-06-30T23:55:51.183Z,100.00
2023-06-30T23:58:56.507Z,100.00
